Government of Jersey

Home Log in

METAR EGJJ 230620Z 09015KT CAVOK 20/16 Q1016

METAR EGJB 230620Z 06010KT CAVOK 18/15 Q1016

METAR EGJA 230620Z 07015KT 9999 FEW000 SCT001 17/17 Q1017

METAR LFRD 230630Z AUTO 10007KT CAVOK 20/16 Q1016 NOSIG

METAR LFRC 230630Z AUTO 10010KT CAVOK 19/16 Q1018 NOSIG